sensor_id;sensor_type;location;lat;lon;timestamp;P1;durP1;ratioP1;P2;durP2;ratioP2
38909;SDS011;24676;51.360;12.354;2023-08-12T00:02:32;3.50;;;1.30;;
38909;SDS011;24676;51.360;12.354;2023-08-12T00:05:16;2.83;;;1.70;;
38909;SDS011;24676;51.360;12.354;2023-08-12T00:08:01;3.97;;;1.40;;
38909;SDS011;24676;51.360;12.354;2023-08-12T00:10:45;3.95;;;1.80;;
38909;SDS011;24676;51.360;12.354;2023-08-12T00:13:29;1.40;;;1.30;;
38909;SDS011;24676;51.360;12.354;2023-08-12T00:16:14;3.00;;;1.90;;
38909;SDS011;24676;51.360;12.354;2023-08-12T00:18:58;2.17;;;1.23;;
38909;SDS011;24676;51.360;12.354;2023-08-12T00:21:43;1.92;;;1.48;;
38909;SDS011;24676;51.360;12.354;2023-08-12T00:24:27;4.47;;;1.50;;
38909;SDS011;24676;51.360;12.354;2023-08-12T00:27:11;2.05;;;1.30;;
38909;SDS011;24676;51.360;12.354;2023-08-12T00:29:56;2.80;;;1.25;;
38909;SDS011;24676;51.360;12.354;2023-08-12T00:32:40;3.40;;;2.53;;
38909;SDS011;24676;51.360;12.354;2023-08-12T00:35:24;2.53;;;2.13;;
38909;SDS011;24676;51.360;12.354;2023-08-12T00:38:08;4.43;;;2.67;;
38909;SDS011;24676;51.360;12.354;2023-08-12T00:40:53;0.90;;;0.90;;
38909;SDS011;24676;51.360;12.354;2023-08-12T00:43:37;1.65;;;1.13;;
38909;SDS011;24676;51.360;12.354;2023-08-12T00:46:22;6.70;;;1.75;;
38909;SDS011;24676;51.360;12.354;2023-08-12T00:49:08;2.33;;;2.03;;
38909;SDS011;24676;51.360;12.354;2023-08-12T00:51:53;3.40;;;2.15;;
38909;SDS011;24676;51.360;12.354;2023-08-12T00:54:38;2.92;;;1.50;;
38909;SDS011;24676;51.360;12.354;2023-08-12T00:57:22;2.80;;;1.43;;
38909;SDS011;24676;51.360;12.354;2023-08-12T01:00:06;3.28;;;1.45;;
38909;SDS011;24676;51.360;12.354;2023-08-12T01:02:51;1.58;;;1.45;;
38909;SDS011;24676;51.360;12.354;2023-08-12T01:05:35;2.60;;;1.63;;
38909;SDS011;24676;51.360;12.354;2023-08-12T01:08:20;2.50;;;1.90;;
38909;SDS011;24676;51.360;12.354;2023-08-12T01:11:18;2.28;;;1.63;;
38909;SDS011;24676;51.360;12.354;2023-08-12T01:17:16;4.60;;;1.85;;
38909;SDS011;24676;51.360;12.354;2023-08-12T01:20:01;3.83;;;1.88;;
38909;SDS011;24676;51.360;12.354;2023-08-12T01:23:25;2.05;;;1.63;;
38909;SDS011;24676;51.360;12.354;2023-08-12T01:26:03;3.95;;;3.08;;
38909;SDS011;24676;51.360;12.354;2023-08-12T01:28:47;2.25;;;1.63;;
38909;SDS011;24676;51.360;12.354;2023-08-12T01:31:40;4.32;;;2.88;;
38909;SDS011;24676;51.360;12.354;2023-08-12T01:37:23;1.40;;;1.10;;
38909;SDS011;24676;51.360;12.354;2023-08-12T01:40:09;4.05;;;1.77;;
38909;SDS011;24676;51.360;12.354;2023-08-12T01:42:54;3.72;;;2.15;;
38909;SDS011;24676;51.360;12.354;2023-08-12T01:45:39;1.75;;;1.52;;
38909;SDS011;24676;51.360;12.354;2023-08-12T01:48:25;4.22;;;1.88;;
38909;SDS011;24676;51.360;12.354;2023-08-12T01:51:09;2.92;;;1.52;;
38909;SDS011;24676;51.360;12.354;2023-08-12T01:53:53;2.72;;;1.98;;
38909;SDS011;24676;51.360;12.354;2023-08-12T01:56:37;4.43;;;1.85;;
38909;SDS011;24676;51.360;12.354;2023-08-12T01:59:22;5.97;;;2.33;;
38909;SDS011;24676;51.360;12.354;2023-08-12T02:02:06;1.60;;;1.50;;
38909;SDS011;24676;51.360;12.354;2023-08-12T02:04:51;2.97;;;1.80;;
38909;SDS011;24676;51.360;12.354;2023-08-12T02:07:35;4.85;;;2.45;;
38909;SDS011;24676;51.360;12.354;2023-08-12T02:10:19;3.10;;;2.03;;
38909;SDS011;24676;51.360;12.354;2023-08-12T02:13:03;1.92;;;1.75;;
38909;SDS011;24676;51.360;12.354;2023-08-12T02:15:48;2.90;;;2.10;;
38909;SDS011;24676;51.360;12.354;2023-08-12T02:18:32;2.13;;;1.80;;
38909;SDS011;24676;51.360;12.354;2023-08-12T02:21:16;7.60;;;3.10;;
38909;SDS011;24676;51.360;12.354;2023-08-12T02:24:00;3.00;;;2.00;;
38909;SDS011;24676;51.360;12.354;2023-08-12T02:26:45;2.95;;;1.65;;
38909;SDS011;24676;51.360;12.354;2023-08-12T02:29:29;4.30;;;2.45;;
38909;SDS011;24676;51.360;12.354;2023-08-12T02:32:14;6.55;;;2.15;;
38909;SDS011;24676;51.360;12.354;2023-08-12T02:34:58;2.53;;;2.28;;
38909;SDS011;24676;51.360;12.354;2023-08-12T02:37:42;1.85;;;1.75;;
38909;SDS011;24676;51.360;12.354;2023-08-12T02:40:26;5.97;;;1.77;;
38909;SDS011;24676;51.360;12.354;2023-08-12T02:43:11;5.88;;;2.55;;
38909;SDS011;24676;51.360;12.354;2023-08-12T02:45:56;8.20;;;2.17;;
38909;SDS011;24676;51.360;12.354;2023-08-12T02:48:40;4.20;;;1.92;;
38909;SDS011;24676;51.360;12.354;2023-08-12T02:51:25;4.15;;;2.30;;
38909;SDS011;24676;51.360;12.354;2023-08-12T02:54:09;4.10;;;2.53;;
38909;SDS011;24676;51.360;12.354;2023-08-12T02:56:53;4.63;;;2.08;;
38909;SDS011;24676;51.360;12.354;2023-08-12T02:59:37;5.22;;;2.20;;
38909;SDS011;24676;51.360;12.354;2023-08-12T03:02:22;1.95;;;1.70;;
38909;SDS011;24676;51.360;12.354;2023-08-12T03:05:06;4.30;;;2.45;;
38909;SDS011;24676;51.360;12.354;2023-08-12T03:07:51;3.42;;;2.08;;
38909;SDS011;24676;51.360;12.354;2023-08-12T03:10:35;1.88;;;1.70;;
38909;SDS011;24676;51.360;12.354;2023-08-12T03:13:21;3.63;;;1.75;;
38909;SDS011;24676;51.360;12.354;2023-08-12T03:16:07;4.85;;;2.58;;
38909;SDS011;24676;51.360;12.354;2023-08-12T03:18:56;2.25;;;1.63;;
38909;SDS011;24676;51.360;12.354;2023-08-12T03:21:40;3.90;;;2.17;;
38909;SDS011;24676;51.360;12.354;2023-08-12T03:24:24;5.13;;;2.33;;
38909;SDS011;24676;51.360;12.354;2023-08-12T03:27:08;2.35;;;2.15;;
38909;SDS011;24676;51.360;12.354;2023-08-12T03:29:52;4.28;;;2.70;;
38909;SDS011;24676;51.360;12.354;2023-08-12T03:32:37;4.95;;;1.92;;
38909;SDS011;24676;51.360;12.354;2023-08-12T03:35:21;2.45;;;2.25;;
38909;SDS011;24676;51.360;12.354;2023-08-12T03:38:05;2.88;;;2.10;;
38909;SDS011;24676;51.360;12.354;2023-08-12T03:40:50;2.60;;;2.40;;
38909;SDS011;24676;51.360;12.354;2023-08-12T03:43:34;4.70;;;1.95;;
38909;SDS011;24676;51.360;12.354;2023-08-12T03:46:20;3.33;;;2.10;;
38909;SDS011;24676;51.360;12.354;2023-08-12T03:49:04;2.53;;;2.13;;
38909;SDS011;24676;51.360;12.354;2023-08-12T03:51:48;5.95;;;3.45;;
38909;SDS011;24676;51.360;12.354;2023-08-12T03:54:33;2.83;;;2.25;;
38909;SDS011;24676;51.360;12.354;2023-08-12T03:57:17;1.40;;;1.30;;
38909;SDS011;24676;51.360;12.354;2023-08-12T04:00:02;3.30;;;2.28;;
38909;SDS011;24676;51.360;12.354;2023-08-12T04:02:47;2.60;;;2.00;;
38909;SDS011;24676;51.360;12.354;2023-08-12T04:05:31;1.70;;;1.33;;
38909;SDS011;24676;51.360;12.354;2023-08-12T04:08:16;2.05;;;1.85;;
38909;SDS011;24676;51.360;12.354;2023-08-12T04:11:00;2.17;;;2.00;;
38909;SDS011;24676;51.360;12.354;2023-08-12T04:13:44;5.68;;;2.35;;
38909;SDS011;24676;51.360;12.354;2023-08-12T04:16:29;2.22;;;1.75;;
38909;SDS011;24676;51.360;12.354;2023-08-12T04:19:13;6.63;;;2.30;;
38909;SDS011;24676;51.360;12.354;2023-08-12T04:21:58;3.78;;;2.13;;
38909;SDS011;24676;51.360;12.354;2023-08-12T04:24:42;1.75;;;1.65;;
38909;SDS011;24676;51.360;12.354;2023-08-12T04:27:26;2.97;;;1.92;;
38909;SDS011;24676;51.360;12.354;2023-08-12T04:30:10;2.33;;;2.13;;
38909;SDS011;24676;51.360;12.354;2023-08-12T04:32:54;3.60;;;1.77;;
38909;SDS011;24676;51.360;12.354;2023-08-12T04:35:39;8.20;;;1.80;;
38909;SDS011;24676;51.360;12.354;2023-08-12T04:38:24;3.45;;;2.10;;
38909;SDS011;24676;51.360;12.354;2023-08-12T04:41:09;2.22;;;1.90;;
38909;SDS011;24676;51.360;12.354;2023-08-12T04:43:53;3.63;;;2.13;;
38909;SDS011;24676;51.360;12.354;2023-08-12T04:46:37;3.90;;;2.92;;
38909;SDS011;24676;51.360;12.354;2023-08-12T04:49:21;2.25;;;1.83;;
38909;SDS011;24676;51.360;12.354;2023-08-12T04:52:07;1.98;;;1.77;;
38909;SDS011;24676;51.360;12.354;2023-08-12T04:54:55;2.35;;;1.90;;
38909;SDS011;24676;51.360;12.354;2023-08-12T04:57:39;3.63;;;1.75;;
38909;SDS011;24676;51.360;12.354;2023-08-12T05:00:23;2.22;;;1.90;;
38909;SDS011;24676;51.360;12.354;2023-08-12T05:03:08;2.15;;;1.85;;
38909;SDS011;24676;51.360;12.354;2023-08-12T05:05:52;2.80;;;2.00;;
38909;SDS011;24676;51.360;12.354;2023-08-12T05:08:36;2.95;;;2.08;;
38909;SDS011;24676;51.360;12.354;2023-08-12T05:11:21;1.73;;;1.58;;
38909;SDS011;24676;51.360;12.354;2023-08-12T05:14:05;5.57;;;2.22;;
38909;SDS011;24676;51.360;12.354;2023-08-12T05:16:50;4.63;;;2.58;;
38909;SDS011;24676;51.360;12.354;2023-08-12T05:19:34;2.38;;;1.92;;
38909;SDS011;24676;51.360;12.354;2023-08-12T05:22:19;1.90;;;1.70;;
38909;SDS011;24676;51.360;12.354;2023-08-12T05:25:03;3.40;;;1.73;;
38909;SDS011;24676;51.360;12.354;2023-08-12T05:27:47;1.75;;;1.60;;
38909;SDS011;24676;51.360;12.354;2023-08-12T05:30:32;1.90;;;1.50;;
38909;SDS011;24676;51.360;12.354;2023-08-12T05:33:16;1.63;;;1.52;;
38909;SDS011;24676;51.360;12.354;2023-08-12T05:36:00;2.35;;;1.55;;
38909;SDS011;24676;51.360;12.354;2023-08-12T05:38:45;1.42;;;1.33;;
38909;SDS011;24676;51.360;12.354;2023-08-12T05:41:29;1.85;;;1.75;;
38909;SDS011;24676;51.360;12.354;2023-08-12T05:44:14;1.80;;;1.63;;
38909;SDS011;24676;51.360;12.354;2023-08-12T05:46:58;2.28;;;1.73;;
38909;SDS011;24676;51.360;12.354;2023-08-12T05:49:43;1.73;;;1.50;;
38909;SDS011;24676;51.360;12.354;2023-08-12T05:52:27;3.75;;;1.63;;
38909;SDS011;24676;51.360;12.354;2023-08-12T05:55:11;2.38;;;1.65;;
38909;SDS011;24676;51.360;12.354;2023-08-12T05:57:55;4.82;;;1.83;;
38909;SDS011;24676;51.360;12.354;2023-08-12T06:00:39;2.63;;;2.05;;
38909;SDS011;24676;51.360;12.354;2023-08-12T06:03:23;4.53;;;1.85;;
38909;SDS011;24676;51.360;12.354;2023-08-12T06:06:07;2.15;;;1.90;;
38909;SDS011;24676;51.360;12.354;2023-08-12T06:08:51;1.50;;;1.40;;
38909;SDS011;24676;51.360;12.354;2023-08-12T06:11:35;1.73;;;1.65;;
38909;SDS011;24676;51.360;12.354;2023-08-12T06:14:19;2.25;;;1.80;;
38909;SDS011;24676;51.360;12.354;2023-08-12T06:17:03;1.85;;;1.67;;
38909;SDS011;24676;51.360;12.354;2023-08-12T06:19:47;2.05;;;1.88;;
38909;SDS011;24676;51.360;12.354;2023-08-12T06:22:31;4.65;;;2.20;;
38909;SDS011;24676;51.360;12.354;2023-08-12T06:25:15;1.70;;;1.60;;
38909;SDS011;24676;51.360;12.354;2023-08-12T06:28:00;1.48;;;1.38;;
38909;SDS011;24676;51.360;12.354;2023-08-12T06:30:45;1.25;;;1.15;;
38909;SDS011;24676;51.360;12.354;2023-08-12T06:33:31;3.63;;;2.38;;
38909;SDS011;24676;51.360;12.354;2023-08-12T06:36:15;2.33;;;1.85;;
38909;SDS011;24676;51.360;12.354;2023-08-12T06:39:00;2.55;;;2.00;;
38909;SDS011;24676;51.360;12.354;2023-08-12T06:41:44;1.55;;;1.30;;
38909;SDS011;24676;51.360;12.354;2023-08-12T06:44:28;4.30;;;1.40;;
38909;SDS011;24676;51.360;12.354;2023-08-12T06:47:13;4.57;;;1.60;;
38909;SDS011;24676;51.360;12.354;2023-08-12T06:49:57;1.60;;;1.33;;
38909;SDS011;24676;51.360;12.354;2023-08-12T06:52:41;3.08;;;2.30;;
38909;SDS011;24676;51.360;12.354;2023-08-12T06:55:25;5.45;;;2.10;;
38909;SDS011;24676;51.360;12.354;2023-08-12T06:58:10;2.47;;;1.95;;
38909;SDS011;24676;51.360;12.354;2023-08-12T07:00:54;1.83;;;1.52;;
38909;SDS011;24676;51.360;12.354;2023-08-12T07:03:38;3.40;;;1.58;;
38909;SDS011;24676;51.360;12.354;2023-08-12T07:06:23;3.60;;;1.70;;
38909;SDS011;24676;51.360;12.354;2023-08-12T07:09:07;1.83;;;1.73;;
38909;SDS011;24676;51.360;12.354;2023-08-12T07:11:51;2.13;;;1.45;;
38909;SDS011;24676;51.360;12.354;2023-08-12T07:14:36;4.25;;;1.25;;
38909;SDS011;24676;51.360;12.354;2023-08-12T07:17:20;2.65;;;1.67;;
38909;SDS011;24676;51.360;12.354;2023-08-12T07:20:05;1.80;;;1.67;;
38909;SDS011;24676;51.360;12.354;2023-08-12T07:22:50;11.65;;;1.35;;
38909;SDS011;24676;51.360;12.354;2023-08-12T07:25:34;1.63;;;1.52;;
38909;SDS011;24676;51.360;12.354;2023-08-12T07:28:18;5.65;;;1.30;;
38909;SDS011;24676;51.360;12.354;2023-08-12T07:31:02;3.42;;;2.13;;
38909;SDS011;24676;51.360;12.354;2023-08-12T07:33:46;2.45;;;2.03;;
38909;SDS011;24676;51.360;12.354;2023-08-12T07:36:31;1.65;;;1.55;;
38909;SDS011;24676;51.360;12.354;2023-08-12T07:39:16;2.08;;;1.90;;
38909;SDS011;24676;51.360;12.354;2023-08-12T07:42:00;2.15;;;1.80;;
38909;SDS011;24676;51.360;12.354;2023-08-12T07:44:45;6.40;;;2.00;;
38909;SDS011;24676;51.360;12.354;2023-08-12T07:47:29;5.65;;;2.15;;
38909;SDS011;24676;51.360;12.354;2023-08-12T07:50:14;1.63;;;1.52;;
38909;SDS011;24676;51.360;12.354;2023-08-12T07:52:58;2.10;;;1.70;;
38909;SDS011;24676;51.360;12.354;2023-08-12T07:55:42;1.90;;;1.73;;
38909;SDS011;24676;51.360;12.354;2023-08-12T07:58:27;1.90;;;1.77;;
38909;SDS011;24676;51.360;12.354;2023-08-12T08:01:11;2.20;;;1.77;;
38909;SDS011;24676;51.360;12.354;2023-08-12T08:03:56;4.53;;;1.98;;
38909;SDS011;24676;51.360;12.354;2023-08-12T08:06:41;3.13;;;1.73;;
38909;SDS011;24676;51.360;12.354;2023-08-12T08:09:25;4.80;;;2.40;;
38909;SDS011;24676;51.360;12.354;2023-08-12T08:12:10;1.92;;;1.50;;
38909;SDS011;24676;51.360;12.354;2023-08-12T08:14:54;2.03;;;1.15;;
38909;SDS011;24676;51.360;12.354;2023-08-12T08:17:38;1.98;;;1.58;;
38909;SDS011;24676;51.360;12.354;2023-08-12T08:20:23;2.30;;;1.38;;
38909;SDS011;24676;51.360;12.354;2023-08-12T08:23:07;1.90;;;1.40;;
38909;SDS011;24676;51.360;12.354;2023-08-12T08:25:52;2.28;;;1.52;;
38909;SDS011;24676;51.360;12.354;2023-08-12T08:28:37;1.60;;;1.50;;
38909;SDS011;24676;51.360;12.354;2023-08-12T08:31:21;1.50;;;1.17;;
38909;SDS011;24676;51.360;12.354;2023-08-12T08:34:06;2.17;;;1.35;;
38909;SDS011;24676;51.360;12.354;2023-08-12T08:36:50;4.03;;;1.88;;
38909;SDS011;24676;51.360;12.354;2023-08-12T08:39:35;4.13;;;2.17;;
38909;SDS011;24676;51.360;12.354;2023-08-12T08:42:19;4.47;;;2.25;;
38909;SDS011;24676;51.360;12.354;2023-08-12T08:45:05;2.28;;;1.50;;
38909;SDS011;24676;51.360;12.354;2023-08-12T08:47:55;1.63;;;1.52;;
38909;SDS011;24676;51.360;12.354;2023-08-12T08:50:39;10.75;;;2.05;;
38909;SDS011;24676;51.360;12.354;2023-08-12T08:53:26;2.63;;;2.42;;
38909;SDS011;24676;51.360;12.354;2023-08-12T08:56:10;2.15;;;1.70;;
38909;SDS011;24676;51.360;12.354;2023-08-12T08:58:55;1.88;;;1.20;;
38909;SDS011;24676;51.360;12.354;2023-08-12T09:01:39;2.10;;;1.90;;
38909;SDS011;24676;51.360;12.354;2023-08-12T09:04:24;3.70;;;1.40;;
38909;SDS011;24676;51.360;12.354;2023-08-12T09:18:08;1.40;;;1.30;;
38909;SDS011;24676;51.360;12.354;2023-08-12T09:20:53;1.13;;;1.02;;
38909;SDS011;24676;51.360;12.354;2023-08-12T09:23:38;1.73;;;1.63;;
38909;SDS011;24676;51.360;12.354;2023-08-12T09:26:24;2.45;;;1.75;;
38909;SDS011;24676;51.360;12.354;2023-08-12T09:29:08;1.08;;;1.08;;
38909;SDS011;24676;51.360;12.354;2023-08-12T09:31:52;1.58;;;1.38;;
38909;SDS011;24676;51.360;12.354;2023-08-12T09:34:37;1.50;;;1.40;;
38909;SDS011;24676;51.360;12.354;2023-08-12T09:37:22;2.63;;;1.75;;
38909;SDS011;24676;51.360;12.354;2023-08-12T09:40:08;2.88;;;1.67;;
38909;SDS011;24676;51.360;12.354;2023-08-12T09:42:52;1.88;;;1.42;;
38909;SDS011;24676;51.360;12.354;2023-08-12T09:45:37;4.53;;;1.83;;
38909;SDS011;24676;51.360;12.354;2023-08-12T09:48:21;2.35;;;1.90;;
38909;SDS011;24676;51.360;12.354;2023-08-12T09:51:05;2.00;;;1.40;;
38909;SDS011;24676;51.360;12.354;2023-08-12T09:53:51;1.98;;;1.80;;
38909;SDS011;24676;51.360;12.354;2023-08-12T09:56:36;3.20;;;1.33;;
38909;SDS011;24676;51.360;12.354;2023-08-12T09:59:23;1.73;;;1.52;;
38909;SDS011;24676;51.360;12.354;2023-08-12T10:02:11;1.23;;;1.13;;
38909;SDS011;24676;51.360;12.354;2023-08-12T10:05:01;1.73;;;1.60;;
38909;SDS011;24676;51.360;12.354;2023-08-12T10:07:47;2.47;;;1.83;;
38909;SDS011;24676;51.360;12.354;2023-08-12T10:10:32;1.50;;;1.40;;
38909;SDS011;24676;51.360;12.354;2023-08-12T10:13:19;3.53;;;1.67;;
38909;SDS011;24676;51.360;12.354;2023-08-12T10:16:05;2.60;;;1.45;;
38909;SDS011;24676;51.360;12.354;2023-08-12T10:18:49;1.73;;;1.63;;
38909;SDS011;24676;51.360;12.354;2023-08-12T10:21:34;2.00;;;1.80;;
38909;SDS011;24676;51.360;12.354;2023-08-12T10:24:19;1.70;;;1.58;;
38909;SDS011;24676;51.360;12.354;2023-08-12T10:27:03;1.85;;;1.75;;
38909;SDS011;24676;51.360;12.354;2023-08-12T10:29:48;5.55;;;2.17;;
38909;SDS011;24676;51.360;12.354;2023-08-12T10:32:33;2.20;;;1.40;;
38909;SDS011;24676;51.360;12.354;2023-08-12T10:35:18;1.65;;;1.55;;
38909;SDS011;24676;51.360;12.354;2023-08-12T10:38:02;2.13;;;1.70;;
38909;SDS011;24676;51.360;12.354;2023-08-12T10:40:50;1.65;;;1.50;;
38909;SDS011;24676;51.360;12.354;2023-08-12T10:43:48;2.75;;;1.77;;
38909;SDS011;24676;51.360;12.354;2023-08-12T10:46:39;1.73;;;1.63;;
38909;SDS011;24676;51.360;12.354;2023-08-12T10:49:23;3.17;;;1.83;;
38909;SDS011;24676;51.360;12.354;2023-08-12T10:52:11;2.50;;;1.98;;
38909;SDS011;24676;51.360;12.354;2023-08-12T10:55:17;2.83;;;1.80;;
38909;SDS011;24676;51.360;12.354;2023-08-12T10:58:02;2.55;;;1.63;;
38909;SDS011;24676;51.360;12.354;2023-08-12T11:00:56;2.78;;;2.47;;
38909;SDS011;24676;51.360;12.354;2023-08-12T11:03:44;2.25;;;2.15;;
38909;SDS011;24676;51.360;12.354;2023-08-12T11:06:29;2.10;;;1.90;;
38909;SDS011;24676;51.360;12.354;2023-08-12T11:09:13;1.98;;;1.52;;
38909;SDS011;24676;51.360;12.354;2023-08-12T11:12:00;2.42;;;2.22;;
38909;SDS011;24676;51.360;12.354;2023-08-12T11:14:53;4.55;;;2.28;;
38909;SDS011;24676;51.360;12.354;2023-08-12T11:17:38;2.20;;;1.77;;
38909;SDS011;24676;51.360;12.354;2023-08-12T11:20:24;1.75;;;1.65;;
38909;SDS011;24676;51.360;12.354;2023-08-12T11:23:11;2.17;;;1.85;;
38909;SDS011;24676;51.360;12.354;2023-08-12T11:25:55;8.73;;;2.05;;
38909;SDS011;24676;51.360;12.354;2023-08-12T11:28:39;2.40;;;2.05;;
38909;SDS011;24676;51.360;12.354;2023-08-12T11:31:23;3.55;;;2.22;;
38909;SDS011;24676;51.360;12.354;2023-08-12T11:34:08;1.95;;;1.50;;
38909;SDS011;24676;51.360;12.354;2023-08-12T11:36:52;1.63;;;1.52;;
38909;SDS011;24676;51.360;12.354;2023-08-12T11:39:36;2.20;;;2.00;;
38909;SDS011;24676;51.360;12.354;2023-08-12T11:42:22;2.28;;;1.48;;
38909;SDS011;24676;51.360;12.354;2023-08-12T11:45:07;2.90;;;1.52;;
38909;SDS011;24676;51.360;12.354;2023-08-12T11:47:52;1.23;;;1.13;;
38909;SDS011;24676;51.360;12.354;2023-08-12T11:50:36;1.75;;;1.60;;
38909;SDS011;24676;51.360;12.354;2023-08-12T11:53:21;1.60;;;1.10;;
38909;SDS011;24676;51.360;12.354;2023-08-12T11:56:06;4.13;;;2.17;;
38909;SDS011;24676;51.360;12.354;2023-08-12T11:58:54;1.50;;;1.40;;
38909;SDS011;24676;51.360;12.354;2023-08-12T12:01:38;3.67;;;1.27;;
38909;SDS011;24676;51.360;12.354;2023-08-12T12:04:22;1.42;;;1.33;;
38909;SDS011;24676;51.360;12.354;2023-08-12T12:07:20;1.10;;;1.00;;
38909;SDS011;24676;51.360;12.354;2023-08-12T12:10:05;1.45;;;1.17;;
38909;SDS011;24676;51.360;12.354;2023-08-12T12:12:50;1.67;;;1.23;;
38909;SDS011;24676;51.360;12.354;2023-08-12T12:15:38;1.05;;;1.02;;
38909;SDS011;24676;51.360;12.354;2023-08-12T12:18:25;2.83;;;1.50;;
38909;SDS011;24676;51.360;12.354;2023-08-12T12:21:09;2.40;;;1.17;;
38909;SDS011;24676;51.360;12.354;2023-08-12T12:23:53;1.75;;;1.30;;
38909;SDS011;24676;51.360;12.354;2023-08-12T12:26:38;1.23;;;1.08;;
38909;SDS011;24676;51.360;12.354;2023-08-12T12:29:22;1.48;;;1.33;;
38909;SDS011;24676;51.360;12.354;2023-08-12T12:32:07;0.75;;;0.75;;
38909;SDS011;24676;51.360;12.354;2023-08-12T12:34:52;0.85;;;0.80;;
38909;SDS011;24676;51.360;12.354;2023-08-12T12:37:38;4.20;;;0.82;;
38909;SDS011;24676;51.360;12.354;2023-08-12T12:40:23;1.25;;;0.90;;
38909;SDS011;24676;51.360;12.354;2023-08-12T12:43:07;3.55;;;1.02;;
38909;SDS011;24676;51.360;12.354;2023-08-12T12:45:51;1.77;;;1.23;;
38909;SDS011;24676;51.360;12.354;2023-08-12T12:51:20;1.42;;;1.00;;
38909;SDS011;24676;51.360;12.354;2023-08-12T12:54:04;1.52;;;1.10;;
38909;SDS011;24676;51.360;12.354;2023-08-12T12:56:48;1.67;;;1.58;;
38909;SDS011;24676;51.360;12.354;2023-08-12T12:59:32;0.93;;;0.88;;
38909;SDS011;24676;51.360;12.354;2023-08-12T13:02:17;1.30;;;0.85;;
38909;SDS011;24676;51.360;12.354;2023-08-12T13:05:01;1.70;;;1.17;;
38909;SDS011;24676;51.360;12.354;2023-08-12T13:07:46;1.70;;;1.45;;
38909;SDS011;24676;51.360;12.354;2023-08-12T13:10:31;1.17;;;0.85;;
38909;SDS011;24676;51.360;12.354;2023-08-12T13:13:15;3.25;;;1.48;;
38909;SDS011;24676;51.360;12.354;2023-08-12T13:15:59;1.00;;;1.00;;
38909;SDS011;24676;51.360;12.354;2023-08-12T13:18:44;1.30;;;0.65;;
38909;SDS011;24676;51.360;12.354;2023-08-12T13:21:28;3.13;;;1.33;;
38909;SDS011;24676;51.360;12.354;2023-08-12T13:24:12;1.40;;;0.98;;
38909;SDS011;24676;51.360;12.354;2023-08-12T13:26:56;1.25;;;1.15;;
38909;SDS011;24676;51.360;12.354;2023-08-12T13:29:40;1.17;;;0.90;;
38909;SDS011;24676;51.360;12.354;2023-08-12T13:32:25;1.20;;;1.20;;
38909;SDS011;24676;51.360;12.354;2023-08-12T13:35:09;1.05;;;0.93;;
38909;SDS011;24676;51.360;12.354;2023-08-12T13:37:55;1.35;;;1.33;;
38909;SDS011;24676;51.360;12.354;2023-08-12T13:40:39;1.48;;;0.90;;
38909;SDS011;24676;51.360;12.354;2023-08-12T13:43:24;1.23;;;1.00;;
38909;SDS011;24676;51.360;12.354;2023-08-12T13:46:09;2.33;;;1.23;;
38909;SDS011;24676;51.360;12.354;2023-08-12T13:48:53;1.23;;;1.13;;
38909;SDS011;24676;51.360;12.354;2023-08-12T13:51:37;1.05;;;1.05;;
38909;SDS011;24676;51.360;12.354;2023-08-12T13:54:21;0.98;;;0.98;;
38909;SDS011;24676;51.360;12.354;2023-08-12T13:57:05;1.25;;;1.15;;
38909;SDS011;24676;51.360;12.354;2023-08-12T13:59:49;1.13;;;1.05;;
38909;SDS011;24676;51.360;12.354;2023-08-12T14:02:33;2.42;;;1.10;;
38909;SDS011;24676;51.360;12.354;2023-08-12T14:05:18;2.28;;;1.73;;
38909;SDS011;24676;51.360;12.354;2023-08-12T14:08:02;1.30;;;1.10;;
38909;SDS011;24676;51.360;12.354;2023-08-12T14:10:47;1.65;;;1.38;;
38909;SDS011;24676;51.360;12.354;2023-08-12T14:13:31;1.67;;;1.13;;
38909;SDS011;24676;51.360;12.354;2023-08-12T14:16:15;1.10;;;1.10;;
38909;SDS011;24676;51.360;12.354;2023-08-12T14:18:59;1.35;;;1.17;;
38909;SDS011;24676;51.360;12.354;2023-08-12T14:21:44;3.22;;;1.27;;
38909;SDS011;24676;51.360;12.354;2023-08-12T14:24:28;5.95;;;1.17;;
38909;SDS011;24676;51.360;12.354;2023-08-12T14:27:12;1.40;;;1.30;;
38909;SDS011;24676;51.360;12.354;2023-08-12T14:29:57;1.00;;;1.00;;
38909;SDS011;24676;51.360;12.354;2023-08-12T14:32:41;1.77;;;1.13;;
38909;SDS011;24676;51.360;12.354;2023-08-12T14:35:25;1.83;;;1.08;;
38909;SDS011;24676;51.360;12.354;2023-08-12T14:38:09;1.60;;;1.50;;
38909;SDS011;24676;51.360;12.354;2023-08-12T14:40:53;1.08;;;0.95;;
38909;SDS011;24676;51.360;12.354;2023-08-12T14:43:37;1.45;;;1.00;;
38909;SDS011;24676;51.360;12.354;2023-08-12T14:46:21;1.02;;;1.00;;
38909;SDS011;24676;51.360;12.354;2023-08-12T14:49:06;0.73;;;0.73;;
38909;SDS011;24676;51.360;12.354;2023-08-12T14:51:50;0.80;;;0.80;;
38909;SDS011;24676;51.360;12.354;2023-08-12T14:54:34;1.08;;;1.08;;
38909;SDS011;24676;51.360;12.354;2023-08-12T14:57:18;1.40;;;1.30;;
38909;SDS011;24676;51.360;12.354;2023-08-12T15:00:03;0.85;;;0.85;;
38909;SDS011;24676;51.360;12.354;2023-08-12T15:02:50;1.52;;;1.10;;
38909;SDS011;24676;51.360;12.354;2023-08-12T15:05:34;1.25;;;0.98;;
38909;SDS011;24676;51.360;12.354;2023-08-12T15:08:18;1.30;;;1.20;;
38909;SDS011;24676;51.360;12.354;2023-08-12T15:11:02;0.90;;;0.90;;
38909;SDS011;24676;51.360;12.354;2023-08-12T15:13:47;1.00;;;0.80;;
38909;SDS011;24676;51.360;12.354;2023-08-12T15:16:31;1.52;;;1.05;;
38909;SDS011;24676;51.360;12.354;2023-08-12T15:19:15;1.50;;;0.90;;
38909;SDS011;24676;51.360;12.354;2023-08-12T15:21:59;6.72;;;2.55;;
38909;SDS011;24676;51.360;12.354;2023-08-12T15:24:43;3.50;;;3.20;;
38909;SDS011;24676;51.360;12.354;2023-08-12T15:27:28;2.78;;;2.58;;
38909;SDS011;24676;51.360;12.354;2023-08-12T15:30:14;15.60;;;7.53;;
38909;SDS011;24676;51.360;12.354;2023-08-12T15:32:58;21.00;;;11.18;;
38909;SDS011;24676;51.360;12.354;2023-08-12T15:35:42;4.63;;;3.50;;
38909;SDS011;24676;51.360;12.354;2023-08-12T15:41:12;3.25;;;2.47;;
38909;SDS011;24676;51.360;12.354;2023-08-12T15:43:57;1.90;;;1.63;;
38909;SDS011;24676;51.360;12.354;2023-08-12T15:46:41;2.28;;;2.00;;
38909;SDS011;24676;51.360;12.354;2023-08-12T15:49:27;6.75;;;4.72;;
38909;SDS011;24676;51.360;12.354;2023-08-12T15:52:16;3.92;;;3.20;;
38909;SDS011;24676;51.360;12.354;2023-08-12T15:55:02;3.95;;;2.55;;
38909;SDS011;24676;51.360;12.354;2023-08-12T15:57:48;2.90;;;2.60;;
38909;SDS011;24676;51.360;12.354;2023-08-12T16:00:32;3.83;;;2.75;;
38909;SDS011;24676;51.360;12.354;2023-08-12T16:06:00;3.00;;;2.10;;
38909;SDS011;24676;51.360;12.354;2023-08-12T16:08:44;12.30;;;3.08;;
38909;SDS011;24676;51.360;12.354;2023-08-12T16:11:28;5.15;;;3.35;;
38909;SDS011;24676;51.360;12.354;2023-08-12T16:14:13;4.38;;;3.72;;
38909;SDS011;24676;51.360;12.354;2023-08-12T16:16:57;6.00;;;4.20;;
38909;SDS011;24676;51.360;12.354;2023-08-12T16:19:41;5.25;;;3.15;;
38909;SDS011;24676;51.360;12.354;2023-08-12T16:22:28;5.28;;;2.58;;
38909;SDS011;24676;51.360;12.354;2023-08-12T16:25:13;3.90;;;2.53;;
38909;SDS011;24676;51.360;12.354;2023-08-12T16:27:57;3.30;;;2.63;;
38909;SDS011;24676;51.360;12.354;2023-08-12T16:30:41;5.55;;;2.55;;
38909;SDS011;24676;51.360;12.354;2023-08-12T16:33:25;4.13;;;2.75;;
38909;SDS011;24676;51.360;12.354;2023-08-12T16:36:09;7.85;;;3.63;;
38909;SDS011;24676;51.360;12.354;2023-08-12T16:38:54;5.15;;;4.22;;
38909;SDS011;24676;51.360;12.354;2023-08-12T16:41:38;5.90;;;4.03;;
38909;SDS011;24676;51.360;12.354;2023-08-12T16:44:22;6.18;;;3.72;;